Time;durP1;ratioP1;P1;durP2;ratioP2;P2;SDS_P1;SDS_P2;PMS_P1;PMS_P2;Temp;Humidity;BMP_temperature;BMP_pressure;BME280_temperature;BME280_humidity;BME280_pressure;Samples;Min_cycle;Max_cycle;Signal;HPM_P1;HPM_P2
2022/11/30 00:00:07;;;;;;;;;;;;;;;6.00;100.00;102247.66;6214934;23;19939;-79
2022/11/30 00:02:32;;;;;;;;;;;;;;;6.01;100.00;102250.25;6216174;23;19912;-79
2022/11/30 00:05:10;;;;;;;;;;;;;;;6.04;100.00;102257.22;6215839;23;19939;-79
2022/11/30 00:07:47;;;;;;;;;;;;;;;6.03;100.00;102250.31;6213612;23;20287;-79
2022/11/30 00:10:12;;;;;;;;;;;;;;;6.03;100.00;102253.75;6215446;23;19912;-79
2022/11/30 00:12:47;;;;;;;;;;;;;;;6.04;100.00;102250.31;6215009;23;19912;-79
2022/11/30 00:15:24;;;;;;;;;;;;;;;6.05;100.00;102251.22;6215450;23;19954;-79
2022/11/30 00:18:03;;;;;;;;;;;;;;;6.04;100.00;102252.91;6214976;23;20002;-79
2022/11/30 00:20:29;;;;;;;;;;;;;;;6.04;100.00;102252.91;6215789;23;19919;-79
2022/11/30 00:23:12;;;;;;;;;;;;;;;6.04;100.00;102252.91;6214996;23;19916;-79
2022/11/30 00:25:37;;;;;;;;;;;;;;;6.05;100.00;102248.63;6215242;23;20241;-79
2022/11/30 00:28:08;;;;;;;;;;;;;;;6.05;100.00;102253.81;6213223;23;19958;-79
2022/11/30 00:30:55;;;;;;;;;;;;;;;6.04;100.00;102254.63;6215592;23;19912;-79
2022/11/30 00:33:33;;;;;;;;;;;;;;;6.03;100.00;102251.16;6215245;23;19923;-79
2022/11/30 00:36:15;;;;;;;;;;;;;;;6.05;100.00;102256.41;6214002;23;19919;-79
2022/11/30 00:38:40;;;;;;;;;;;;;;;6.04;100.00;102254.63;6215821;23;19966;-79
2022/11/30 00:41:06;;;;;;;;;;;;;;;6.05;100.00;102256.41;6215445;23;20365;-79
2022/11/30 00:43:36;;;;;;;;;;;;;;;6.05;100.00;102253.81;6214870;23;20031;-79
2022/11/30 00:46:02;;;;;;;;;;;;;;;6.04;100.00;102263.25;6214105;23;19916;-79
2022/11/30 00:48:39;;;;;;;;;;;;;;;6.04;100.00;102264.97;6215531;23;19919;-79
2022/11/30 00:51:13;;;;;;;;;;;;;;;6.04;100.00;102263.25;6214226;23;19923;-79
2022/11/30 00:53:39;;;;;;;;;;;;;;;6.05;100.00;102266.75;6214987;23;19912;-79
2022/11/30 00:56:05;;;;;;;;;;;;;;;6.05;100.00;102264.16;6213480;23;19912;-78
2022/11/30 00:58:30;;;;;;;;;;;;;;;6.05;100.00;102266.75;6215649;23;19919;-79
2022/11/30 01:00:55;;;;;;;;;;;;;;;6.04;100.00;102265.84;6215508;23;19965;-79
2022/11/30 01:03:20;;;;;;;;;;;;;;;6.05;100.00;102264.16;6214446;23;19958;-79
2022/11/30 01:05:46;;;;;;;;;;;;;;;6.05;100.00;102269.34;6215589;23;19934;-79
2022/11/30 01:08:11;;;;;;;;;;;;;;;6.05;100.00;102267.63;6215233;23;20237;-79
2022/11/30 01:10:38;;;;;;;;;;;;;;;6.06;100.00;102277.13;6214344;23;19912;-79
2022/11/30 01:13:04;;;;;;;;;;;;;;;6.06;100.00;102271.06;6214984;23;19915;-79
2022/11/30 01:15:30;;;;;;;;;;;;;;;6.07;100.00;102270.22;6215261;23;19916;-79
2022/11/30 01:17:55;;;;;;;;;;;;;;;6.07;100.00;102272.81;6212727;23;20317;-79
2022/11/30 01:20:23;;;;;;;;;;;;;;;6.08;100.00;102270.25;6215620;23;19942;-79
2022/11/30 01:22:57;;;;;;;;;;;;;;;6.08;100.00;102274.53;6215040;23;19931;-79
2022/11/30 01:25:31;;;;;;;;;;;;;;;6.08;100.00;102279.72;6214313;23;19994;-79
2022/11/30 01:27:56;;;;;;;;;;;;;;;6.08;100.00;102278.03;6215270;23;19966;-79
2022/11/30 01:30:33;;;;;;;;;;;;;;;6.08;100.00;102275.44;6214854;23;20256;-79
2022/11/30 01:33:32;;;;;;;;;;;;;;;6.08;100.00;102275.44;6212924;23;19963;-79
2022/11/30 01:36:33;;;;;;;;;;;;;;;6.07;100.00;102273.69;6214235;23;19916;-79
2022/11/30 01:39:06;;;;;;;;;;;;;;;6.04;100.00;102276.22;6214049;23;19950;-79
2022/11/30 01:41:31;;;;;;;;;;;;;;;6.05;100.00;102271.94;6215580;23;19919;-79
2022/11/30 01:44:09;;;;;;;;;;;;;;;6.04;100.00;102272.75;6214908;23;19987;-79
2022/11/30 01:46:56;;;;;;;;;;;;;;;6.03;100.00;102271.00;6213530;23;19996;-79
2022/11/30 01:49:38;;;;;;;;;;;;;;;6.02;100.00;102269.28;6214287;23;19915;-79
2022/11/30 01:52:09;;;;;;;;;;;;;;;5.99;100.00;102269.22;6215015;23;19951;-79
2022/11/30 01:54:50;;;;;;;;;;;;;;;5.95;100.00;102285.53;6213855;23;19911;-79
2022/11/30 01:57:35;;;;;;;;;;;;;;;5.89;100.00;102283.69;6214544;23;20206;-79
2022/11/30 02:00:20;;;;;;;;;;;;;;;5.88;100.00;102289.69;6216235;23;19912;-79
2022/11/30 02:02:54;;;;;;;;;;;;;;;5.86;100.00;102291.38;6217358;23;19908;-79
2022/11/30 02:05:19;;;;;;;;;;;;;;;5.86;100.00;102297.44;6217109;23;20219;-79
2022/11/30 02:07:45;;;;;;;;;;;;;;;5.88;100.00;102289.69;6215177;23;19997;-79
2022/11/30 02:10:30;;;;;;;;;;;;;;;5.90;100.00;102289.72;6216849;23;19908;-79
2022/11/30 02:13:14;;;;;;;;;;;;;;;5.93;100.00;102292.41;6216739;23;19912;-79
2022/11/30 02:15:57;;;;;;;;;;;;;;;5.95;100.00;102293.28;6215915;23;19919;-79
2022/11/30 02:18:45;;;;;;;;;;;;;;;5.96;100.00;102295.06;6217107;23;19919;-79
2022/11/30 02:21:14;;;;;;;;;;;;;;;5.96;100.00;102289.88;6152476;23;19908;-79
2022/11/30 02:24:08;;;;;;;;;;;;;;;5.98;100.00;102293.34;6209944;23;19915;-79
2022/11/30 02:26:33;;;;;;;;;;;;;;;5.99;100.00;102295.13;6215047;23;19912;-79
2022/11/30 02:29:17;;;;;;;;;;;;;;;5.99;100.00;102289.94;6215570;23;19987;-79
2022/11/30 02:32:10;;;;;;;;;;;;;;;6.00;100.00;102296.84;6216744;23;19991;-79
2022/11/30 02:34:51;;;;;;;;;;;;;;;6.03;100.00;102304.66;6216389;23;19919;-79
2022/11/30 02:37:24;;;;;;;;;;;;;;;6.02;100.00;102290.84;6216398;23;19919;-79
2022/11/30 02:39:49;;;;;;;;;;;;;;;6.02;100.00;102293.44;6215870;23;19918;-79
2022/11/30 02:42:23;;;;;;;;;;;;;;;6.01;100.00;102301.16;6215258;23;19935;-79
2022/11/30 02:45:06;;;;;;;;;;;;;;;6.01;100.00;102296.00;6215900;23;20236;-79
2022/11/30 02:47:50;;;;;;;;;;;;;;;6.02;100.00;102295.16;6215762;23;19908;-79
2022/11/30 02:50:56;;;;;;;;;;;;;;;6.01;100.00;102299.44;6216236;23;19912;-79
2022/11/30 02:53:22;;;;;;;;;;;;;;;6.02;100.00;102306.41;6154031;23;19983;-79
2022/11/30 02:55:59;;;;;;;;;;;;;;;6.03;100.00;102312.44;6152032;23;19951;-79
2022/11/30 02:58:25;;;;;;;;;;;;;;;6.03;100.00;102304.66;6152277;23;19923;-79
2022/11/30 03:00:56;;;;;;;;;;;;;;;6.03;100.00;102312.44;6153485;23;19912;-79
2022/11/30 03:03:33;;;;;;;;;;;;;;;6.03;100.00;102310.72;6153263;23;19968;-79
2022/11/30 03:06:08;;;;;;;;;;;;;;;6.03;100.00;102304.66;6153353;23;19924;-79
2022/11/30 03:08:36;;;;;;;;;;;;;;;6.03;100.00;102307.25;6153799;23;19913;-79
2022/11/30 03:11:16;;;;;;;;;;;;;;;6.00;100.00;102297.72;6179075;23;19966;-79
2022/11/30 03:13:56;;;;;;;;;;;;;;;5.98;100.00;102308.88;6215875;23;20330;-79
2022/11/30 03:16:35;;;;;;;;;;;;;;;5.97;100.00;102308.00;6216078;23;19912;-79
2022/11/30 03:19:04;;;;;;;;;;;;;;;5.96;100.00;102313.19;6215346;23;19943;-79
2022/11/30 03:21:44;;;;;;;;;;;;;;;5.94;100.00;102313.13;6215352;23;19915;-79
2022/11/30 03:24:15;;;;;;;;;;;;;;;5.92;100.00;102308.72;6215230;23;20400;-80
2022/11/30 03:26:40;;;;;;;;;;;;;;;5.92;100.00;102303.53;6216349;23;19912;-80
2022/11/30 03:29:06;;;;;;;;;;;;;;;5.91;100.00;102312.16;6216223;23;20034;-79
2022/11/30 03:31:31;;;;;;;;;;;;;;;5.90;100.00;102313.88;6214375;23;19962;-79
2022/11/30 03:33:56;;;;;;;;;;;;;;;5.88;100.00;102310.38;6215659;23;19912;-79
2022/11/30 03:36:21;;;;;;;;;;;;;;;5.85;100.00;102308.63;6215872;23;19912;-79
2022/11/30 03:38:50;;;;;;;;;;;;;;;5.83;100.00;102305.13;6214255;23;20264;-79
2022/11/30 03:41:16;;;;;;;;;;;;;;;5.80;100.00;102307.66;6216120;23;19908;-79
2022/11/30 03:43:42;;;;;;;;;;;;;;;5.77;100.00;102309.31;6210827;23;19915;-79
2022/11/30 03:46:13;;;;;;;;;;;;;;;5.70;100.00;102304.88;6214620;23;19966;-79
2022/11/30 03:48:54;;;;;;;;;;;;;;;5.64;100.00;102314.22;6214222;23;19908;-79
2022/11/30 03:51:31;;;;;;;;;;;;;;;5.59;100.00;102305.53;6215520;23;19911;-79
2022/11/30 03:54:36;;;;;;;;;;;;;;;5.55;100.00;102308.88;6215191;23;19908;-79
2022/11/30 03:57:12;;;;;;;;;;;;;;;5.54;100.00;102311.44;6152717;23;19912;-79
2022/11/30 03:59:50;;;;;;;;;;;;;;;5.54;100.00;102321.78;6152604;23;19919;-79
2022/11/30 04:02:21;;;;;;;;;;;;;;;5.55;100.00;102319.22;6152670;23;19923;-79
2022/11/30 04:04:46;;;;;;;;;;;;;;;5.58;100.00;102316.69;6153113;23;19923;-79
2022/11/30 04:07:11;;;;;;;;;;;;;;;5.60;100.00;102321.91;6151523;23;19988;-79
2022/11/30 04:09:39;;;;;;;;;;;;;;;5.61;100.00;102319.34;6153120;23;19912;-79
2022/11/30 04:12:10;;;;;;;;;;;;;;;5.63;100.00;102309.03;6152948;23;20081;-79
2022/11/30 04:14:41;;;;;;;;;;;;;;;5.63;100.00;102309.91;6193012;23;19947;-79
2022/11/30 04:17:07;;;;;;;;;;;;;;;5.63;100.00;102311.63;6214774;23;19916;-79
2022/11/30 04:19:44;;;;;;;;;;;;;;;5.62;100.00;102304.69;6215435;23;20035;-79
2022/11/30 04:22:09;;;;;;;;;;;;;;;5.62;100.00;102317.63;6214396;23;20217;-79
2022/11/30 04:24:35;;;;;;;;;;;;;;;5.62;100.00;102309.88;6215988;23;19919;-79
2022/11/30 04:27:09;;;;;;;;;;;;;;;5.62;100.00;102312.44;6214280;23;19911;-79
2022/11/30 04:29:34;;;;;;;;;;;;;;;5.63;100.00;102316.81;6215652;23;20218;-79
2022/11/30 04:32:08;;;;;;;;;;;;;;;5.64;100.00;102319.41;6214203;23;19962;-79
2022/11/30 04:34:34;;;;;;;;;;;;;;;5.63;100.00;102317.69;6214620;23;19922;-79
2022/11/30 04:37:41;;;;;;;;;;;;;;;5.66;100.00;102315.97;6214415;23;19919;-79
2022/11/30 04:40:06;;;;;;;;;;;;;;;5.65;100.00;102322.88;6164937;23;19990;-79
2022/11/30 04:42:52;;;;;;;;;;;;;;;5.66;100.00;102319.47;6215391;23;19950;-79
2022/11/30 04:45:17;;;;;;;;;;;;;;;5.65;100.00;102320.28;6215057;23;19942;-79
2022/11/30 04:47:42;;;;;;;;;;;;;;;5.65;100.00;102320.28;6214995;23;19912;-79
2022/11/30 04:50:08;;;;;;;;;;;;;;;5.66;100.00;102326.31;6214652;23;20347;-79
2022/11/30 04:52:45;;;;;;;;;;;;;;;5.65;100.00;102330.63;6215926;23;19958;-79
2022/11/30 04:55:10;;;;;;;;;;;;;;;5.66;100.00;102322.03;6214427;23;19947;-79
2022/11/30 04:57:39;;;;;;;;;;;;;;;5.67;100.00;102323.78;6215020;23;19912;-79
2022/11/30 05:00:05;;;;;;;;;;;;;;;5.66;100.00;102332.41;6214769;23;19934;-79
2022/11/30 05:02:30;;;;;;;;;;;;;;;5.62;100.00;102327.97;6213726;23;20300;-79
2022/11/30 05:05:10;;;;;;;;;;;;;;;5.55;100.00;102321.81;6215369;23;20305;-79
2022/11/30 05:07:36;;;;;;;;;;;;;;;5.50;100.00;102325.16;6214820;23;19916;-79
2022/11/30 05:10:05;;;;;;;;;;;;;;;5.45;100.00;102325.03;6213854;23;20352;-79
2022/11/30 05:12:30;;;;;;;;;;;;;;;5.40;100.00;102313.75;6215178;23;20390;-79
2022/11/30 05:14:56;;;;;;;;;;;;;;;5.38;100.00;102323.16;6214887;23;19943;-79
2022/11/30 05:17:30;;;;;;;;;;;;;;;5.34;100.00;102324.81;6214233;23;19939;-79
2022/11/30 05:19:55;;;;;;;;;;;;;;;5.29;100.00;102323.81;6214012;23;19916;-79
2022/11/30 05:22:33;;;;;;;;;;;;;;;5.25;100.00;102329.78;6215320;23;19918;-79
2022/11/30 05:25:14;;;;;;;;;;;;;;;5.22;100.00;102334.00;6214436;23;19912;-79
2022/11/30 05:27:52;;;;;;;;;;;;;;;5.19;100.00;102327.06;6215318;23;19946;-79
2022/11/30 05:30:38;;;;;;;;;;;;;;;5.17;100.00;102331.34;6214060;23;19938;-79
2022/11/30 05:33:09;;;;;;;;;;;;;;;5.14;100.00;102332.13;6215243;23;20248;-79
2022/11/30 05:35:49;;;;;;;;;;;;;;;5.10;100.00;102329.44;6217288;23;19916;-79
2022/11/30 05:38:14;;;;;;;;;;;;;;;5.05;100.00;102329.34;6215037;23;19912;-79
2022/11/30 05:40:46;;;;;;;;;;;;;;;5.02;100.00;102333.56;6217066;23;19916;-79
2022/11/30 05:43:20;;;;;;;;;;;;;;;5.02;100.00;102341.31;6216135;23;20363;-79
2022/11/30 05:45:45;;;;;;;;;;;;;;;5.02;100.00;102346.50;6216389;23;20320;-79
2022/11/30 05:48:10;;;;;;;;;;;;;;;5.03;100.00;102345.63;6215505;23;19912;-79
2022/11/30 05:50:51;;;;;;;;;;;;;;;5.05;100.00;102346.56;6216556;23;19912;-79
2022/11/30 05:53:31;;;;;;;;;;;;;;;5.06;100.00;102348.28;6216272;23;19919;-79
2022/11/30 05:55:59;;;;;;;;;;;;;;;5.06;100.00;102356.91;6216636;23;20329;-79
2022/11/30 05:58:43;;;;;;;;;;;;;;;5.07;100.00;102353.53;6216407;23;19971;-79
2022/11/30 06:01:25;;;;;;;;;;;;;;;5.08;100.00;102357.84;6215726;23;19912;-79
2022/11/30 06:03:50;;;;;;;;;;;;;;;5.13;100.00;102360.53;6216892;23;19920;-79
2022/11/30 06:06:18;;;;;;;;;;;;;;;5.14;100.00;102347.66;6216309;23;19919;-79
2022/11/30 06:08:58;;;;;;;;;;;;;;;5.16;100.00;102355.44;6216367;22;19928;-79
2022/11/30 06:11:26;;;;;;;;;;;;;;;5.19;100.00;102362.38;6216622;23;19918;-79
2022/11/30 06:14:07;;;;;;;;;;;;;;;5.21;100.00;102363.31;6215830;23;20248;-79
2022/11/30 06:16:32;;;;;;;;;;;;;;;5.22;100.00;102362.47;6217177;23;19911;-79
2022/11/30 06:19:06;;;;;;;;;;;;;;;5.22;100.00;102350.41;6215702;23;19912;-79
2022/11/30 06:21:31;;;;;;;;;;;;;;;5.22;100.00;102357.28;6216494;23;19912;-79
2022/11/30 06:24:08;;;;;;;;;;;;;;;5.20;100.00;102359.84;6216979;23;19918;-79
2022/11/30 06:26:37;;;;;;;;;;;;;;;5.20;100.00;102359.84;6215427;23;20336;-79
2022/11/30 06:29:17;;;;;;;;;;;;;;;5.20;100.00;102362.44;6216479;23;20248;-79
2022/11/30 06:31:42;;;;;;;;;;;;;;;5.19;100.00;102362.38;6216880;23;19945;-79
2022/11/30 06:34:47;;;;;;;;;;;;;;;5.20;100.00;102365.03;6214557;23;19912;-79
2022/11/30 06:37:12;;;;;;;;;;;;;;;5.19;100.00;102365.84;6207012;23;19991;-79
2022/11/30 06:39:38;;;;;;;;;;;;;;;5.19;100.00;102371.00;6215848;23;19944;-79
2022/11/30 06:42:03;;;;;;;;;;;;;;;5.20;100.00;102362.44;6215534;23;19982;-79
2022/11/30 06:44:43;;;;;;;;;;;;;;;5.20;100.00;102366.72;6216757;23;20263;-79
2022/11/30 06:47:24;;;;;;;;;;;;;;;5.20;100.00;102367.59;6216319;23;19912;-79
2022/11/30 06:49:49;;;;;;;;;;;;;;;5.19;100.00;102365.84;6215500;23;19919;-79
2022/11/30 06:52:20;;;;;;;;;;;;;;;5.20;100.00;102367.59;6215164;23;20233;-79
2022/11/30 06:54:45;;;;;;;;;;;;;;;5.21;100.00;102369.34;6216159;23;20321;-79
2022/11/30 06:57:26;;;;;;;;;;;;;;;5.22;100.00;102377.97;6216072;23;19922;-79
2022/11/30 07:00:06;;;;;;;;;;;;;;;5.22;100.00;102378.84;6215541;23;19988;-79
2022/11/30 07:02:32;;;;;;;;;;;;;;;5.25;100.00;102385.81;6215015;23;19987;-79
2022/11/30 07:05:15;;;;;;;;;;;;;;;5.24;100.00;102382.34;6215872;23;19948;-79
2022/11/30 07:07:40;;;;;;;;;;;;;;;5.24;100.00;102384.06;6215240;23;20288;-79
2022/11/30 07:10:06;;;;;;;;;;;;;;;5.25;100.00;102385.81;6214965;23;19920;-79
2022/11/30 07:12:34;;;;;;;;;;;;;;;5.24;100.00;102387.53;6215646;23;20243;-79
2022/11/30 07:15:14;;;;;;;;;;;;;;;5.25;100.00;102386.66;6216847;23;19957;-79
2022/11/30 07:17:51;;;;;;;;;;;;;;;5.25;100.00;102391.84;6215760;23;20332;-79
2022/11/30 07:20:17;;;;;;;;;;;;;;;5.27;100.00;102389.31;6216044;23;20311;-79
2022/11/30 07:22:42;;;;;;;;;;;;;;;5.26;100.00;102390.13;6215469;23;19912;-79
2022/11/30 07:28:07;;;;;;;;;;;;;;;5.27;100.00;102404.81;6215984;23;19922;-79
2022/11/30 07:30:33;;;;;;;;;;;;;;;5.27;100.00;102412.59;6215110;23;19912;-78
2022/11/30 07:33:16;;;;;;;;;;;;;;;5.28;100.00;102407.44;6215810;23;20316;-78
2022/11/30 07:35:44;;;;;;;;;;;;;;;5.29;100.00;102409.16;6215943;23;19912;-79
2022/11/30 07:38:10;;;;;;;;;;;;;;;5.30;100.00;102415.25;6265155;22;20250;-78
2022/11/30 07:40:50;;;;;;;;;;;;;;;5.31;100.00;102409.22;6277186;22;19942;-78
2022/11/30 07:43:16;;;;;;;;;;;;;;;5.34;100.00;102417.06;6277096;22;19912;-78
2022/11/30 07:46:04;;;;;;;;;;;;;;;5.34;100.00;102417.91;6276579;22;19918;-79
2022/11/30 07:48:45;;;;;;;;;;;;;;;5.36;100.00;102421.44;6276562;22;19907;-80
2022/11/30 07:51:33;;;;;;;;;;;;;;;5.38;100.00;102432.66;6275628;22;19918;-78
2022/11/30 07:54:11;;;;;;;;;;;;;;;5.41;100.00;102429.28;6122625;23;19913;-78
2022/11/30 07:56:36;;;;;;;;;;;;;;;5.44;100.00;102429.34;6122371;23;20025;-78
2022/11/30 07:59:20;;;;;;;;;;;;;;;5.47;100.00;102434.59;6098122;23;19989;-78
2022/11/30 08:01:54;;;;;;;;;;;;;;;5.51;100.00;102425.19;6123932;23;20351;-78
2022/11/30 08:04:30;;;;;;;;;;;;;;;5.53;100.00;102420.94;6123116;23;20032;-78
2022/11/30 08:06:59;;;;;;;;;;;;;;;5.56;100.00;102431.34;6123110;23;19944;-78
2022/11/30 08:09:24;;;;;;;;;;;;;;;5.59;100.00;102441.75;6124103;23;19913;-78
2022/11/30 08:11:49;;;;;;;;;;;;;;;5.63;100.00;102433.25;6123383;23;19920;-78
2022/11/30 08:14:14;;;;;;;;;;;;;;;5.64;100.00;102437.56;6123105;23;20389;-78
2022/11/30 08:16:58;;;;;;;;;;;;;;;5.65;100.00;102439.31;6123919;23;19924;-78
2022/11/30 08:19:30;;;;;;;;;;;;;;;5.67;100.00;102442.81;6276667;22;19912;-78
2022/11/30 08:21:55;;;;;;;;;;;;;;;5.67;100.00;102445.41;6276664;22;19973;-78
2022/11/30 08:24:35;;;;;;;;;;;;;;;5.66;100.00;102448.84;6276372;22;20312;-78
2022/11/30 08:27:09;;;;;;;;;;;;;;;5.66;100.00;102450.53;6275961;22;19912;-78
2022/11/30 08:29:34;;;;;;;;;;;;;;;5.64;100.00;102442.75;6276499;22;20296;-78
2022/11/30 08:32:00;;;;;;;;;;;;;;;5.63;100.00;102453.94;6276107;22;19911;-78
2022/11/30 08:34:28;;;;;;;;;;;;;;;5.66;100.00;102455.69;6276189;22;19911;-78
2022/11/30 08:36:53;;;;;;;;;;;;;;;5.71;100.00;102456.69;6272564;22;19922;-78
2022/11/30 08:39:18;;;;;;;;;;;;;;;5.77;100.00;102455.09;6276479;22;19919;-78
2022/11/30 08:41:44;;;;;;;;;;;;;;;5.86;100.00;102452.72;6275880;22;19957;-78
2022/11/30 08:44:23;;;;;;;;;;;;;;;5.91;100.00;102462.28;6270887;22;19911;-78
2022/11/30 08:47:07;;;;;;;;;;;;;;;5.94;100.00;102457.22;6276041;22;19917;-78
2022/11/30 08:49:51;;;;;;;;;;;;;;;5.94;100.00;102468.44;6276009;22;19915;-78
2022/11/30 08:52:22;;;;;;;;;;;;;;;5.93;100.00;102471.00;6275951;22;19982;-78
2022/11/30 08:54:48;;;;;;;;;;;;;;;5.87;100.00;102476.88;6275060;22;19911;-78
2022/11/30 08:57:32;;;;;;;;;;;;;;;5.79;100.00;102468.97;6276390;22;19938;-78
2022/11/30 08:59:57;;;;;;;;;;;;;;;5.74;100.00;102472.28;6276184;22;19911;-78
2022/11/30 09:02:31;;;;;;;;;;;;;;;5.75;100.00;102467.13;6276312;22;19911;-78
2022/11/30 09:04:56;;;;;;;;;;;;;;;5.80;100.00;102469.84;6276789;22;19911;-78
2022/11/30 09:07:22;;;;;;;;;;;;;;;5.89;100.00;102471.75;6276905;22;19922;-78
2022/11/30 09:09:59;;;;;;;;;;;;;;;6.00;100.00;102472.88;6277999;22;19911;-78
2022/11/30 09:12:24;;;;;;;;;;;;;;;6.10;100.00;102480.88;6279454;22;19965;-78
2022/11/30 09:15:01;;;;;;;;;;;;;;;6.21;100.00;102483.72;6279255;22;19980;-78
2022/11/30 09:17:30;;;;;;;;;;;;;;;6.29;100.00;102482.13;6279316;22;19965;-78
2022/11/30 09:20:08;;;;;;;;;;;;;;;6.33;100.00;102489.13;6279118;22;19987;-78
2022/11/30 09:22:48;;;;;;;;;;;;;;;6.36;100.00;102482.25;6278424;22;19907;-78
2022/11/30 09:25:26;;;;;;;;;;;;;;;6.36;100.00;102485.72;6278412;22;19911;-78
2022/11/30 09:28:09;;;;;;;;;;;;;;;6.41;100.00;102480.63;6276000;22;20205;-78
2022/11/30 09:30:43;;;;;;;;;;;;;;;6.47;100.00;102491.97;6277501;22;19946;-78
2022/11/30 09:33:15;;;;;;;;;;;;;;;6.56;100.00;102484.38;6278314;22;19917;-78
2022/11/30 09:35:40;;;;;;;;;;;;;;;6.60;100.00;102487.91;6248759;22;19919;-78
2022/11/30 09:38:34;;;;;;;;;;;;;;;6.63;100.00;102492.28;6246271;23;20278;-78
2022/11/30 09:41:39;;;;;;;;;;;;;;;6.65;100.00;102494.06;6246129;23;19922;-78
2022/11/30 09:44:28;;;;;;;;;;;;;;;6.71;100.00;102501.09;6247267;23;19916;-78
2022/11/30 09:47:28;;;;;;;;;;;;;;;6.70;100.00;102500.22;6247720;23;19915;-78
2022/11/30 09:50:23;;;;;;;;;;;;;;;6.63;100.00;102500.94;6247184;23;20319;-78
2022/11/30 09:53:06;;;;;;;;;;;;;;;6.55;100.00;102492.16;6247068;23;19918;-78
2022/11/30 09:55:42;;;;;;;;;;;;;;;6.45;100.00;102493.69;6247468;23;19926;-78
2022/11/30 09:58:36;;;;;;;;;;;;;;;6.40;100.00;102489.25;6247233;23;19993;-78
2022/11/30 10:01:24;;;;;;;;;;;;;;;6.38;100.00;102496.13;6218583;23;20308;-78
2022/11/30 10:04:27;;;;;;;;;;;;;;;6.38;100.00;102488.38;6243317;23;19911;-78
2022/11/30 10:07:20;;;;;;;;;;;;;;;6.35;100.00;102503.84;6247143;23;19939;-78
2022/11/30 10:10:07;;;;;;;;;;;;;;;6.27;100.00;102496.75;6247691;23;20344;-78
2022/11/30 10:16:03;;;;;;;;;;;;;;;6.16;100.00;102485.31;6223306;23;19922;-78
2022/11/30 10:18:46;;;;;;;;;;;;;;;6.14;100.00;102487.00;6247347;23;19954;-78
2022/11/30 10:21:31;;;;;;;;;;;;;;;6.13;100.00;102487.84;6247446;23;19912;-78
2022/11/30 10:24:19;;;;;;;;;;;;;;;6.13;100.00;102485.25;6246764;23;19912;-78
2022/11/30 10:26:55;;;;;;;;;;;;;;;6.15;100.00;102487.84;6246634;23;19973;-78
2022/11/30 10:29:46;;;;;;;;;;;;;;;;;;;;;
2022/11/30 10:32:30;;;;;;;;;;;;;;;6.27;100.00;102472.59;6242861;23;19982;-78
2022/11/30 10:35:09;;;;;;;;;;;;;;;6.37;100.00;102478.81;6246888;23;19916;-78
2022/11/30 10:37:36;;;;;;;;;;;;;;;6.46;100.00;102472.09;6246996;23;20412;-77
2022/11/30 10:40:13;;;;;;;;;;;;;;;6.56;100.00;102471.44;6246098;23;19911;-77
2022/11/30 10:42:42;;;;;;;;;;;;;;;6.62;100.00;102473.28;6247447;23;19932;-77
2022/11/30 10:45:31;;;;;;;;;;;;;;;6.66;100.00;102461.25;6238507;23;19939;-77
2022/11/30 10:48:14;;;;;;;;;;;;;;;6.68;100.00;102469.94;6245880;23;19915;-77
2022/11/30 10:50:39;;;;;;;;;;;;;;;6.68;100.00;102470.81;6247201;23;20316;-77
2022/11/30 10:53:05;;;;;;;;;;;;;;;6.71;100.00;102462.22;6246688;23;19938;-77
2022/11/30 10:55:49;;;;;;;;;;;;;;;6.79;100.00;102468.41;6246048;23;19911;-77
2022/11/30 10:58:20;;;;;;;;;;;;;;;6.90;100.00;102463.41;6246923;23;19957;-77
2022/11/30 11:01:05;;;;;;;;;;;;;;;7.09;100.00;102457.69;6246504;23;19935;-77
2022/11/30 11:03:39;;;;;;;;;;;;;;;7.33;100.00;102461.56;6247509;23;19954;-77
2022/11/30 11:06:06;;;;;;;;;;;;;;;7.60;100.00;102455.91;6247282;23;19911;-77
2022/11/30 11:08:32;;;;;;;;;;;;;;;7.79;100.00;102457.03;6246800;23;19919;-77
2022/11/30 11:10:57;;;;;;;;;;;;;;;7.92;100.00;102448.56;6247142;23;19912;-77
2022/11/30 11:13:39;;;;;;;;;;;;;;;8.05;100.00;102445.25;6246421;23;20316;-77
2022/11/30 11:19:33;;;;;;;;;;;;;;;8.28;100.00;102448.13;6245312;23;19916;-77
2022/11/30 11:22:18;;;;;;;;;;;;;;;8.35;100.00;102452.56;6245331;23;20387;-77
2022/11/30 11:25:02;;;;;;;;;;;;;;;8.31;100.00;102452.50;6220304;23;20209;-77
2022/11/30 11:27:28;;;;;;;;;;;;;;;8.18;100.00;102444.56;6246465;23;20380;-77
2022/11/30 11:30:11;;;;;;;;;;;;;;;8.11;100.00;102439.25;6245463;23;19911;-77
2022/11/30 11:32:36;;;;;;;;;;;;;;;8.02;100.00;102445.22;6246313;23;20240;-77
2022/11/30 11:35:39;;;;;;;;;;;;;;;7.94;100.00;102444.25;6246150;23;19912;-77
2022/11/30 11:38:25;;;;;;;;;;;;;;;7.88;100.00;102446.75;6245318;23;19940;-77
2022/11/30 11:41:10;;;;;;;;;;;;;;;7.84;100.00;102450.16;6245379;23;19911;-77
2022/11/30 11:43:54;;;;;;;;;;;;;;;7.87;100.00;102445.00;6245922;23;19986;-77
2022/11/30 11:46:19;;;;;;;;;;;;;;;7.90;100.00;102443.34;6246481;23;20320;-77
2022/11/30 11:48:54;;;;;;;;;;;;;;;7.95;100.00;102448.59;6242945;23;19942;-78
2022/11/30 11:51:28;;;;;;;;;;;;;;;7.98;100.00;102444.31;6243544;23;19918;-79
2022/11/30 11:53:54;;;;;;;;;;;;;;;7.98;100.00;102451.25;6245844;23;19965;-78
2022/11/30 11:56:25;;;;;;;;;;;;;;;7.85;100.00;102442.41;6245802;23;19954;-79
2022/11/30 11:58:53;;;;;;;;;;;;;;;7.77;100.00;102448.34;6244111;23;19923;-79
2022/11/30 12:01:30;;;;;;;;;;;;;;;7.69;100.00;102449.13;6245587;23;19911;-78
2022/11/30 12:04:13;;;;;;;;;;;;;;;7.65;100.00;102449.03;6244763;23;19926;-78
2022/11/30 12:06:41;;;;;;;;;;;;;;;7.62;100.00;102447.28;6245987;23;19912;-78
2022/11/30 12:09:13;;;;;;;;;;;;;;;7.54;100.00;102453.22;6244331;23;19926;-78
2022/11/30 12:11:41;;;;;;;;;;;;;;;7.30;100.00;102452.00;6246253;23;19959;-79
2022/11/30 12:14:10;;;;;;;;;;;;;;;7.13;100.00;102451.72;6244953;23;19927;-78
2022/11/30 12:16:53;;;;;;;;;;;;;;;6.99;100.00;102451.47;6246050;23;19961;-78
2022/11/30 12:19:20;;;;;;;;;;;;;;;6.93;100.00;102453.97;6245017;23;20374;-78
2022/11/30 12:21:52;;;;;;;;;;;;;;;6.99;100.00;102442.81;6245769;23;20251;-78
2022/11/30 12:24:23;;;;;;;;;;;;;;;7.04;100.00;102449.84;6245543;23;19912;-78
2022/11/30 12:26:55;;;;;;;;;;;;;;;7.16;100.00;102448.28;6244225;23;19934;-78
2022/11/30 12:29:33;;;;;;;;;;;;;;;7.23;100.00;102456.22;6243840;23;21321;-78
2022/11/30 12:32:15;;;;;;;;;;;;;;;7.22;100.00;102451.84;6245549;23;19912;-78
2022/11/30 12:35:02;;;;;;;;;;;;;;;7.15;100.00;102450.00;6245288;23;19951;-78
2022/11/30 12:37:50;;;;;;;;;;;;;;;7.12;100.00;102446.50;6245312;23;19974;-78
2022/11/30 12:40:32;;;;;;;;;;;;;;;7.10;100.00;102458.59;6244041;23;19915;-78
2022/11/30 12:43:04;;;;;;;;;;;;;;;7.29;100.00;102460.59;6245822;23;19912;-78
2022/11/30 12:45:58;;;;;;;;;;;;;;;7.45;100.00;102457.41;6245294;23;19995;-78
2022/11/30 12:48:33;;;;;;;;;;;;;;;7.64;100.00;102458.53;6217660;23;19919;-78
2022/11/30 12:51:05;;;;;;;;;;;;;;;7.66;100.00;102456.00;6244312;23;19912;-78
2022/11/30 12:53:34;;;;;;;;;;;;;;;7.73;100.00;102445.72;6245492;23;19991;-78
2022/11/30 12:56:05;;;;;;;;;;;;;;;7.82;100.00;102452.75;6245697;23;20037;-78
2022/11/30 12:58:49;;;;;;;;;;;;;;;7.78;100.00;102455.28;6244622;23;19911;-78
2022/11/30 13:01:42;;;;;;;;;;;;;;;7.67;100.00;102458.59;6245426;23;19914;-78
2022/11/30 13:04:07;;;;;;;;;;;;;;;7.50;100.00;102462.69;6244183;23;19915;-78
2022/11/30 13:06:36;;;;;;;;;;;;;;;7.28;100.00;102467.50;6244792;23;19918;-78
2022/11/30 13:09:20;;;;;;;;;;;;;;;7.04;100.00;102465.41;6243883;23;19907;-78
2022/11/30 13:11:48;;;;;;;;;;;;;;;6.93;100.00;102477.31;6245612;23;19920;-78
2022/11/30 13:14:20;;;;;;;;;;;;;;;6.95;100.00;102470.41;6244092;23;19981;-78
2022/11/30 13:16:45;;;;;;;;;;;;;;;7.03;100.00;102480.94;6244742;23;19911;-78
2022/11/30 13:19:43;;;;;;;;;;;;;;;7.14;100.00;102474.22;6244913;23;19951;-78
2022/11/30 13:22:14;;;;;;;;;;;;;;;7.28;100.00;102471.84;6176200;23;19950;-78
2022/11/30 13:24:44;;;;;;;;;;;;;;;7.26;100.00;102469.22;6244642;23;20240;-78